Hasbrouck Heights, New Jersey
Current Conditions -  °F | °C
As of 10:51 AM on Thursday 23 Oct 2014 (Local Time) from KTEB Reporting Station
Moderate Rain Moderate Rain  
Wind Chill: 52°   Ceiling: 2300
Heat Index: 52°   Visibility: 10mi
Dew Point: 45°   Wind: 10mph
Humidity: 77%   Direction: 350°N
Pressure: 29.72"   Gusts: NA
Location:  40.86°N, 74.08°W
Report Text: KTEB 231451Z 35009KT 10SM RA OVC023 11/07 A2972 RMK AO2 RAB24 SLP063 P0002 60012 T01110072 53006
Loading
Personal Weather Stations






























Interactive Weather Map
Tropical Storm Tracking
New forecast layout! Learn more

10-Day Weather Forecast

Advertisements
Track Severe Weather on mobile